This is the latest recevied weather packets stored in our database for station/object SP9TWP-3. If no packets are shown the sender has not sent any weather packets the latest 10 day(s).
| Time | Temp. | Humidity | Pressure | Rain* | Wind** | Luminosity | Snow |
|---|---|---|---|---|---|---|---|
| 1777851999 | 12.78° C | 49% | 1014.5 hPa | - | - | - | - |
| 1777851099 | 12.78° C | 49% | 1014.6 hPa | - | - | - | - |
| 1777850198 | 12.78° C | 49% | 1014.6 hPa | - | - | - | - |
| 1777849298 | 13.33° C | 49% | 1014.7 hPa | - | - | - | - |
| 1777848398 | 15° C | 43% | 1014.8 hPa | - | - | - | - |
| 1777847498 | 15.56° C | 39% | 1014.8 hPa | - | - | - | - |
| 1777846598 | 15.56° C | 39% | 1014.9 hPa | - | - | - | - |
| 1777845698 | 16.67° C | 37% | 1015 hPa | - | - | - | - |
| 1777844798 | 17.22° C | 35% | 1015 hPa | - | - | - | - |
| 1777843897 | 17.22° C | 34% | 1015 hPa | - | - | - | - |
| 1777842997 | 17.22° C | 35% | 1014.9 hPa | - | - | - | - |
| 1777842096 | 17.22° C | 38% | 1014.8 hPa | - | - | - | - |
| 1777841196 | 17.22° C | 39% | 1014.9 hPa | - | - | - | - |
| 1777840296 | 16.67° C | 43% | 1014.8 hPa | - | - | - | - |
| 1777839396 | 17.22° C | 44% | 1014.7 hPa | - | - | - | - |
| 1777838496 | 17.78° C | 41% | 1014.7 hPa | - | - | - | - |
| 1777837595 | 17.78° C | 41% | 1014.8 hPa | - | - | - | - |
| 1777836695 | 18.33° C | 40% | 1014.7 hPa | - | - | - | - |
| 1777835795 | 18.89° C | 39% | 1014.7 hPa | - | - | - | - |
| 1777834957 | 19.44° C | 37% | 1014.6 hPa | - | - | - | - |
| 1777834895 | 19.44° C | 37% | 1014.6 hPa | - | - | - | - |
| 1777833995 | 20° C | 36% | 1014.5 hPa | - | - | - | - |
| 1777833095 | 20.56° C | 33% | 1014.4 hPa | - | - | - | - |
| 1777832357 | 21.67° C | 31% | 1014.3 hPa | - | - | - | - |
| 1777832194 | 21.67° C | 31% | 1014.3 hPa | - | - | - | - |
* Rain since midnight (hover to see other rain measurements)
** Current wind speed in m/s (hover to see current wind gust speed)